Latest Weather Observations for Coconut Island

IDQ60801

Issued at 6:35 pm EST Wednesday 30 July 2014 (issued every 30 minutes, with the page automatically refreshed every 10 minutes)

About weather observations | Map of weather stations | Latest weather observations for QLD | Other Formats
Station Details ID: 027054 Name: COCONUT ISLAND Lat: -10.05 Lon: 143.07 Height: 3.5 m
Data from the previous 72 hours. | See also: Recent months at Coconut Island
Date/Time
EST
Temp
°C
App
Temp
°C
Dew
Point
Rel
Hum
%
Delta-T
°C
Wind Press
QNH
hPa
Press
MSL
hPa
Rain
since 9 am
mm
Dir
 
Spd
km/h
Gust
km/h
Spd
kts
Gust
kts
30/06:30pm 25.1 - - - - SE 7 13 4 7 1013.1 - 0.0
30/06:00pm 25.9 - - - - SSE 7 15 4 8 1012.7 1012.7 0.0
30/05:30pm 26.6 - - - - SSE 7 17 4 9 1012.6 - 0.0
30/05:00pm 26.8 - - - - SSE 6 9 3 5 1012.3 1012.3 0.0
30/04:30pm 27.3 - - - - SSE 6 13 3 7 1012.0 - 0.0
30/04:00pm 27.8 - - - - SSE 7 17 4 9 1012.0 1012.0 0.0
30/03:30pm 28.5 - - - - SSE 7 17 4 9 1012.0 - 0.0
30/03:00pm 28.4 - - - - SSE 9 20 5 11 1012.1 1012.1 0.0
30/02:30pm 29.1 - - - - SE 9 19 5 10 1012.2 - 0.0
30/02:00pm 29.2 - - - - SSE 7 17 4 9 1012.4 1012.4 0.0
30/01:30pm 29.3 - - - - SSE 7 17 4 9 1012.7 - 0.0
30/01:00pm 29.8 - - - - SE 11 20 6 11 1013.2 1013.2 0.0
30/12:30pm 28.4 - - - - SSE 7 15 4 8 1013.7 - 0.0
30/12:00pm 28.8 - - - - SSE 9 19 5 10 1014.0 1014.0 0.0
30/11:30am 28.3 - - - - SE 11 30 6 16 1014.3 - 0.0
30/11:00am 28.0 - - - - SE 11 22 6 12 1014.7 1014.7 0.0
30/10:30am 28.0 - - - - SE 7 19 4 10 1014.9 - 0.0
30/10:00am 27.7 - - - - SE 9 22 5 12 1015.0 1015.0 0.0
30/09:30am 26.9 - - - - SE 9 20 5 11 1015.0 - 0.0
30/09:00am 26.3 - - - - SE 9 19 5 10 1014.8 1014.8 0.0
30/08:30am 25.9 - - - - SSE 9 22 5 12 1014.8 - 0.0
30/08:00am 25.2 - - - - SSE 7 17 4 9 1014.5 1014.5 0.0
30/07:30am 24.8 - - - - SSE 7 15 4 8 1014.3 - 0.0
30/07:00am 24.5 - - - - SSE 7 19 4 10 1014.1 1014.1 0.0
30/06:30am 24.5 - - - - SE 7 17 4 9 1013.9 - 0.0
30/06:00am 24.6 - - - - SE 9 17 5 9 1013.8 1013.8 0.0
30/05:30am 24.7 - - - - SSE 6 15 3 8 1013.7 - 0.0
30/05:00am 24.8 - - - - SSE 7 19 4 10 1013.5 1013.5 0.0
30/04:30am 24.8 - - - - SSE 7 15 4 8 1013.2 - 0.0
30/04:00am 24.8 - - - - SSE 7 17 4 9 1013.1 1013.1 0.0
30/03:30am 24.8 - - - - SSE 7 13 4 7 1013.1 - 0.0
30/03:00am 24.8 - - - - SSE 7 17 4 9 1013.2 1013.2 0.0
30/02:30am 24.9 - - - - SSE 7 17 4 9 1013.3 - 0.0
30/02:00am 24.9 - - - - SSE 9 17 5 9 1013.7 1013.7 0.0
30/01:30am 25.0 - - - - SSE 9 22 5 12 1014.0 - 0.0
30/01:00am 25.0 - - - - SSE 7 19 4 10 1014.2 1014.2 0.0
30/12:30am 25.0 - - - - SSE 7 17 4 9 1014.3 - 0.0
30/12:00am 24.8 - - - - SSE 7 13 4 7 1014.4 1014.4 0.0
 
Date/Time
EST
Temp
°C
App
Temp
°C
Dew
Point
Rel
Hum
%
Delta-T
°C
Wind Press
QNH
hPa
Press
MSL
hPa
Rain
since 9 am
mm
Dir
 
Spd
km/h
Gust
km/h
Spd
kts
Gust
kts
29/11:30pm 24.8 - - - - SSE 7 17 4 9 1014.6 - 0.0
29/11:00pm 24.8 - - - - SSE 9 15 5 8 1014.6 1014.6 0.0
29/10:30pm 25.0 - - - - SSE 7 17 4 9 1014.7 - 0.0
29/10:00pm 25.1 - - - - SSE 9 19 5 10 1014.7 1014.7 0.0
29/09:30pm 25.2 - - - - SSE 7 15 4 8 1014.7 - 0.0
29/09:00pm 25.1 - - - - SSE 9 20 5 11 1014.5 1014.5 0.0
29/08:30pm 24.9 - - - - SSE 9 24 5 13 1014.4 - 0.0
29/08:00pm 24.9 - - - - SSE 7 11 4 6 1014.3 1014.3 0.0
29/07:30pm 24.9 - - - - SSE 7 19 4 10 1014.0 - 0.0
29/07:00pm 25.2 - - - - SSE 7 19 4 10 1013.8 1013.8 0.0
29/06:30pm 25.5 - - - - SSE 9 19 5 10 1013.6 - 0.0
29/06:00pm 25.8 - - - - SSE 7 15 4 8 1013.5 1013.5 0.0
29/05:30pm 26.0 - - - - SE 7 19 4 10 1013.2 - 0.0
29/05:00pm 26.6 - - - - SE 7 19 4 10 1013.1 1013.1 0.0
29/04:30pm 26.7 - - - - SSE 7 17 4 9 1012.8 - 0.0
29/04:00pm 28.5 - - - - SSE 7 19 4 10 1012.7 1012.7 0.0
29/03:30pm 29.3 - - - - SE 9 19 5 10 1012.7 - 0.0
29/03:00pm 28.9 - - - - SE 7 26 4 14 1012.8 1012.8 0.0
29/02:30pm 29.8 - - - - SE 9 22 5 12 1013.1 - 0.0
29/02:00pm 29.3 - - - - SE 9 20 5 11 1013.2 1013.2 0.0
29/01:30pm 29.4 - - - - SSE 7 22 4 12 1013.7 - 0.0
29/01:00pm 29.4 - - - - SE 9 17 5 9 1014.1 1014.1 0.0
29/12:30pm 28.8 - - - - SSE 9 19 5 10 1014.5 - 0.0
29/12:00pm 28.5 - - - - SSE 7 19 4 10 1014.9 1014.9 0.0
29/11:30am 28.2 - - - - SE 9 20 5 11 1015.2 - 0.0
29/11:00am 27.8 - - - - SSE 9 20 5 11 1015.3 1015.3 0.0
29/10:30am 27.8 - - - - SSE 9 24 5 13 1015.3 - 0.0
29/10:00am 27.3 - - - - SSE 9 24 5 13 1015.5 1015.5 0.0
29/09:30am 26.7 - - - - SE 9 24 5 13 1015.2 - 0.0
29/09:00am 26.7 - - - - SSE 7 17 4 9 1015.1 1015.1 0.4
29/08:30am 25.7 - - - - SSE 7 22 4 12 1014.8 - 0.4
29/08:00am 25.1 - - - - SSE 7 13 4 7 1014.6 1014.6 0.4
29/07:30am 24.8 - - - - SSE 7 15 4 8 1014.2 - 0.4
29/07:00am 24.6 - - - - SSE 7 17 4 9 1014.0 1014.0 0.4
29/06:30am 24.6 - - - - SSE 7 20 4 11 1013.6 - 0.4
29/06:00am 24.5 - - - - SSE 7 19 4 10 1013.3 1013.3 0.4
29/05:30am 24.5 - - - - SSE 7 17 4 9 1013.1 - 0.4
29/05:00am 24.4 - - - - SSE 6 11 3 6 1012.9 1012.9 0.4
29/04:30am 24.5 - - - - SSE 7 17 4 9 1012.7 - 0.4
29/04:00am 24.6 - - - - SSE 7 15 4 8 1012.6 1012.6 0.4
29/03:30am 24.5 - - - - SSE 7 17 4 9 1012.6 - 0.4
29/03:00am 24.6 - - - - SSE 6 15 3 8 1012.9 1012.9 0.4
29/02:30am 24.6 - - - - SSE 7 19 4 10 1013.1 - 0.4
29/02:00am 24.7 - - - - SSE 7 19 4 10 1013.3 1013.3 0.4
29/01:30am 24.7 - - - - SSE 7 20 4 11 1013.6 - 0.4
29/01:00am 24.6 - - - - SSE 7 15 4 8 1014.0 1014.0 0.4
29/12:30am 24.4 - - - - SSE 7 17 4 9 1014.2 - 0.4
29/12:00am 24.8 - - - - SE 11 24 6 13 1014.2 1014.2 0.4
 
Date/Time
EST
Temp
°C
App
Temp
°C
Dew
Point
Rel
Hum
%
Delta-T
°C
Wind Press
QNH
hPa
Press
MSL
hPa
Rain
since 9 am
mm
Dir
 
Spd
km/h
Gust
km/h
Spd
kts
Gust
kts
28/11:30pm 24.3 - - - - SSE 7 24 4 13 1014.5 - 0.4
28/11:00pm 24.3 - - - - SSE 6 11 3 6 1014.4 1014.4 0.4
28/10:30pm 24.1 - - - - SE 7 20 4 11 1014.6 - 0.4
28/10:00pm 24.7 - - - - SSE 7 17 4 9 1014.6 1014.6 0.2
28/09:30pm 24.9 - - - - SE 7 20 4 11 1014.4 - 0.2
28/09:00pm 24.9 - - - - SE 9 20 5 11 1014.4 1014.4 0.2
28/08:30pm 24.9 - - - - SE 9 17 5 9 1014.1 - 0.2
28/08:00pm 24.4 - - - - SE 9 22 5 12 1013.9 1013.9 0.2
28/07:30pm 23.6 - - - - SE 9 20 5 11 1013.5 - 0.2
28/07:00pm 24.1 - - - - SE 11 32 6 17 1013.4 1013.4 0.0
28/06:30pm 24.9 - - - - SSE 6 17 3 9 1012.9 - 0.0
28/06:00pm 25.6 - - - - SSE 9 24 5 13 1012.8 1012.8 0.0
28/05:30pm 26.2 - - - - SE 11 22 6 12 1012.7 - 0.0
28/05:00pm 26.3 - - - - SE 7 24 4 13 1012.5 1012.5 0.0
28/04:30pm 27.0 - - - - SE 11 24 6 13 1012.5 - 0.0
28/04:00pm 27.9 - - - - SSE 6 15 3 8 1012.4 1012.4 0.0
28/03:30pm 28.3 - - - - SE 4 13 2 7 1012.4 - 0.0
28/03:00pm 29.1 - - - - SSE 6 15 3 8 1012.5 1012.5 0.0
28/02:30pm 29.8 - - - - SE 6 13 3 7 1012.8 - 0.0
28/02:00pm 29.6 - - - - SE 7 20 4 11 1013.0 1013.0 0.0
28/01:30pm 29.5 - - - - SE 7 17 4 9 1013.4 - 0.0
28/01:00pm 30.2 - - - - SE 13 22 7 12 1013.7 1013.7 0.0
28/12:30pm 29.8 - - - - SE 11 20 6 11 1014.0 - 0.0
28/12:00pm 29.3 - - - - SE 11 20 6 11 1014.5 1014.5 0.0
28/11:30am 29.9 - - - - SE 11 20 6 11 1014.8 - 0.0
28/11:00am 29.5 - - - - ESE 15 28 8 15 1015.2 1015.2 0.0
28/10:30am 29.2 - - - - SE 11 20 6 11 1015.3 - 0.0
28/10:00am 28.0 - - - - SE 6 15 3 8 1015.2 1015.2 0.0
28/09:30am 28.8 - - - - SE 9 20 5 11 1015.3 - 0.0
28/09:00am 27.9 - - - - ESE 11 22 6 12 1015.1 1015.1 0.0
28/08:30am 26.3 - - - - SE 7 19 4 10 1015.0 - 0.0
28/08:00am 25.1 - - - - SE 9 22 5 12 1014.7 1014.7 0.0
28/07:30am 24.6 - - - - SE 7 19 4 10 1014.4 - 0.0
28/07:00am 24.4 - - - - SE 7 19 4 10 1013.8 1013.8 0.0
28/06:30am 24.3 - - - - SE 9 22 5 12 1013.5 - 0.0
28/06:00am 24.5 - - - - SE 7 19 4 10 1013.3 1013.3 0.0
28/05:30am 24.6 - - - - ESE 13 26 7 14 1013.2 - 0.0
28/05:00am 24.6 - - - - SE 7 19 4 10 1013.1 1013.1 0.0
28/04:30am 24.7 - - - - SE 7 20 4 11 1013.0 - 0.0
28/04:00am 24.7 - - - - SE 9 19 5 10 1012.8 1012.8 0.0
28/03:30am 24.8 - - - - SE 9 20 5 11 1012.7 - 0.0
28/03:00am 24.7 - - - - SE 9 20 5 11 1012.7 1012.7 0.0
28/02:30am 24.8 - - - - SE 11 24 6 13 1013.0 - 0.0
28/02:00am 24.9 - - - - SE 9 20 5 11 1013.2 1013.2 0.0
28/01:30am 25.0 - - - - SE 9 20 5 11 1013.4 - 0.0
28/01:00am 25.0 - - - - SE 9 24 5 13 1013.7 1013.7 0.0
28/12:30am 25.0 - - - - SE 9 19 5 10 1014.2 - 0.0
28/12:00am 25.1 - - - - SE 9 26 5 14 1014.5 1014.5 0.0
 
Date/Time
EST
Temp
°C
App
Temp
°C
Dew
Point
Rel
Hum
%
Delta-T
°C
Wind Press
QNH
hPa
Press
MSL
hPa
Rain
since 9 am
mm
Dir
 
Spd
km/h
Gust
km/h
Spd
kts
Gust
kts
27/11:30pm 25.1 - - - - SE 9 20 5 11 1014.8 - 0.0
27/11:00pm 25.1 - - - - SE 11 30 6 16 1015.0 1015.0 0.0
27/10:30pm 25.1 - - - - SE 9 20 5 11 1015.3 - 0.0
27/10:00pm 25.1 - - - - SSE 9 20 5 11 1015.4 1015.4 0.0
27/09:30pm 25.0 - - - - SSE 9 22 5 12 1015.2 - 0.0
27/09:00pm 24.7 - - - - SE 11 33 6 18 1015.1 1015.1 0.0
27/08:30pm 25.3 - - - - SSE 9 17 5 9 1014.8 - 0.0
27/08:00pm 24.6 - - - - SSE 6 11 3 6 1014.7 1014.7 0.0
27/07:30pm 24.7 - - - - SSE 7 26 4 14 1014.5 - 0.0
27/07:00pm 25.1 - - - - SSE 7 19 4 10 1014.2 1014.2 0.0

Other Formats:

Comma delimited format used in spreadsheet applications
http://www.bom.gov.au/fwo/IDQ60801/IDQ60801.94182.axf

JavaScript Object Notation format (JSON) in row-major order
http://www.bom.gov.au/fwo/IDQ60801/IDQ60801.94182.json